Wyoming, Ohio
Current Conditions -  °F | °C
As of 2:53 PM on Friday 21 Nov 2014 (Local Time) from KHAO Reporting Station
Clear Clear  
Wind Chill: 29°   Ceiling: Unl
Heat Index: 33°   Visibility: 10mi
Dew Point: 10°   Wind: 5mph
Humidity: 38%   Direction: 90°E
Pressure: 30.48"   Gusts: NA
Location:  39.246°N, 84.538°W
Report Text: KHAO 211953Z AUTO 09004KT 10SM CLR 01/M12 A3048 RMK AO2 SLP332 T00061122
Loading
Personal Weather Stations






























Interactive Weather Map New forecast layout! Learn more

10-Day Weather Forecast

Advertisements
Track Severe Weather on mobile